Time;durP1;ratioP1;P1;durP2;ratioP2;P2;SDS_P1;SDS_P2;PMS_P1;PMS_P2;Temp;Humidity;BMP_temperature;BMP_pressure;BME280_temperature;BME280_humidity;BME280_pressure;Samples;Min_cycle;Max_cycle;Signal;HPM_P1;HPM_P2
2022/04/03 00:00:33;;;;;;;2.10;1.67;;;22.80;31.80;;;;;;5052355;28;20413;-63
2022/04/03 00:03:00;;;;;;;3.20;1.90;;;22.80;31.80;;;;;;5052377;28;20439;-63
2022/04/03 00:05:26;;;;;;;2.40;1.80;;;22.80;31.80;;;;;;5052093;28;20398;-63
2022/04/03 00:07:53;;;;;;;2.40;1.40;;;22.80;31.80;;;;;;5052285;28;20382;-63
2022/04/03 00:10:19;;;;;;;2.40;1.70;;;22.80;31.80;;;;;;5052196;28;20389;-63
2022/04/03 00:12:46;;;;;;;1.80;1.60;;;22.70;31.80;;;;;;5052244;28;20385;-63
2022/04/03 00:15:13;;;;;;;3.13;1.85;;;22.70;31.70;;;;;;5053387;28;20404;-63
2022/04/03 00:17:38;;;;;;;1.90;1.60;;;22.80;31.80;;;;;;5071751;28;20488;-63
2022/04/03 00:20:04;;;;;;;3.00;1.73;;;22.80;31.80;;;;;;5071947;28;20456;-63
2022/04/03 00:22:30;;;;;;;2.40;1.60;;;22.80;31.80;;;;;;5072047;28;20735;-63
2022/04/03 00:24:56;;;;;;;2.28;1.70;;;22.70;31.80;;;;;;5071992;28;20479;-63
2022/04/03 00:27:21;;;;;;;1.90;1.50;;;22.70;31.80;;;;;;5070434;28;20866;-63
2022/04/03 00:29:47;;;;;;;3.10;1.52;;;22.70;31.80;;;;;;5070796;28;20479;-63
2022/04/03 00:32:13;;;;;;;2.33;1.60;;;22.70;31.80;;;;;;5070595;28;20479;-63
2022/04/03 00:34:38;;;;;;;2.05;1.70;;;22.70;31.70;;;;;;5071819;28;20490;-63
2022/04/03 00:37:04;;;;;;;2.67;1.55;;;22.70;31.70;;;;;;5071721;28;20376;-63
2022/04/03 00:39:30;;;;;;;2.30;1.60;;;22.70;31.70;;;;;;5071303;28;20429;-63
2022/04/03 00:41:56;;;;;;;2.40;1.50;;;22.70;31.60;;;;;;5071749;28;20411;-63
2022/04/03 00:44:23;;;;;;;2.15;1.60;;;22.70;31.60;;;;;;5071599;28;20470;-63
2022/04/03 00:46:49;;;;;;;2.00;1.60;;;22.70;31.60;;;;;;5071718;28;20422;-63
2022/04/03 00:49:14;;;;;;;1.77;1.60;;;22.70;31.60;;;;;;5071590;28;20424;-63
2022/04/03 00:51:40;;;;;;;2.08;1.60;;;22.70;31.50;;;;;;5071205;28;20391;-63
2022/04/03 00:54:07;;;;;;;2.87;1.80;;;22.70;31.60;;;;;;5071608;28;20379;-63
2022/04/03 00:56:34;;;;;;;2.07;1.60;;;22.60;31.40;;;;;;5071638;28;20383;-63
2022/04/03 00:59:00;;;;;;;2.25;1.45;;;22.70;31.50;;;;;;5071438;28;20432;-63
2022/04/03 01:01:25;;;;;;;2.00;1.60;;;22.70;31.60;;;;;;5071207;28;20953;-63
2022/04/03 01:03:51;;;;;;;2.08;1.50;;;22.60;31.50;;;;;;5071336;28;20743;-63
2022/04/03 01:06:17;;;;;;;1.80;1.50;;;22.60;31.50;;;;;;5071413;28;20748;-63
2022/04/03 01:08:43;;;;;;;2.20;1.60;;;22.60;32.10;;;;;;5071443;28;20449;-63
2022/04/03 01:11:13;;;;;;;2.53;1.70;;;22.60;31.60;;;;;;5070087;28;20865;-63
2022/04/03 01:13:47;;;;;;;2.20;1.60;;;22.60;31.60;;;;;;5070891;28;20395;-63
2022/04/03 01:16:13;;;;;;;2.28;1.60;;;22.60;31.50;;;;;;5071118;28;20408;-63
2022/04/03 01:18:38;;;;;;;3.20;1.83;;;22.60;31.60;;;;;;5071324;28;20505;-63
2022/04/03 01:21:04;;;;;;;2.25;1.52;;;22.60;31.60;;;;;;5071238;28;20871;-63
2022/04/03 01:23:30;;;;;;;3.60;1.80;;;22.60;31.50;;;;;;5071061;28;20859;-63
2022/04/03 01:25:56;;;;;;;2.03;1.50;;;22.60;31.50;;;;;;5071241;28;20887;-63
2022/04/03 01:28:23;;;;;;;1.83;1.60;;;22.60;31.50;;;;;;5071235;28;20375;-63
2022/04/03 01:30:49;;;;;;;2.00;1.33;;;22.60;31.60;;;;;;5071216;28;20399;-63
2022/04/03 01:33:16;;;;;;;2.40;1.73;;;22.60;31.60;;;;;;5071187;28;20748;-63
2022/04/03 01:35:42;;;;;;;2.00;1.50;;;22.60;31.50;;;;;;5070617;28;20403;-63
2022/04/03 01:38:07;;;;;;;1.80;1.40;;;22.50;31.40;;;;;;5071117;28;20871;-63
2022/04/03 01:40:36;;;;;;;2.20;1.70;;;22.50;31.40;;;;;;5073137;28;20412;-63
2022/04/03 01:43:06;;;;;;;1.85;1.50;;;22.50;31.30;;;;;;5075056;28;20521;-63
2022/04/03 01:45:36;;;;;;;1.98;1.60;;;22.50;31.40;;;;;;5074568;28;20391;-63
2022/04/03 01:48:03;;;;;;;2.15;1.73;;;22.50;31.30;;;;;;5073541;28;20875;-63
2022/04/03 01:50:29;;;;;;;2.15;1.33;;;22.50;31.40;;;;;;5074933;28;20387;-63
2022/04/03 01:52:54;;;;;;;1.77;1.48;;;22.50;31.40;;;;;;5074918;28;20747;-63
2022/04/03 01:55:20;;;;;;;1.70;1.50;;;22.50;31.50;;;;;;5074768;28;20395;-63
2022/04/03 01:57:46;;;;;;;1.70;1.40;;;22.50;31.40;;;;;;5074337;28;20471;-63
2022/04/03 02:00:12;;;;;;;1.95;1.60;;;22.50;31.50;;;;;;5074535;28;20450;-63
2022/04/03 02:02:38;;;;;;;1.73;1.50;;;22.50;31.50;;;;;;5074638;28;20380;-63
2022/04/03 02:05:05;;;;;;;2.15;1.65;;;22.50;31.50;;;;;;5074594;28;20859;-63
2022/04/03 02:07:33;;;;;;;2.00;1.58;;;22.40;31.30;;;;;;5074404;28;20521;-63
2022/04/03 02:09:59;;;;;;;2.33;1.70;;;22.50;31.40;;;;;;5074586;28;20388;-63
2022/04/03 02:12:25;;;;;;;2.43;1.60;;;22.50;31.40;;;;;;5074549;28;20466;-63
2022/04/03 02:14:50;;;;;;;2.17;1.42;;;22.40;31.40;;;;;;5074501;28;20823;-63
2022/04/03 02:17:16;;;;;;;2.33;1.57;;;22.40;31.30;;;;;;5074272;28;20407;-63
2022/04/03 02:19:42;;;;;;;1.77;1.40;;;22.40;31.30;;;;;;5073855;28;20415;-63
2022/04/03 02:22:08;;;;;;;2.43;1.90;;;22.40;31.30;;;;;;5074297;28;20786;-63
2022/04/03 02:24:34;;;;;;;3.40;1.80;;;22.40;31.40;;;;;;5074322;28;20736;-63
2022/04/03 02:26:59;;;;;;;2.42;1.55;;;22.40;31.20;;;;;;5074227;28;20380;-63
2022/04/03 02:29:25;;;;;;;2.10;1.50;;;22.40;31.20;;;;;;5074172;28;20755;-63
2022/04/03 02:31:51;;;;;;;3.00;1.50;;;22.40;31.30;;;;;;5073694;28;20388;-63
2022/04/03 02:34:17;;;;;;;2.30;1.30;;;22.40;31.30;;;;;;5074061;28;20423;-63
2022/04/03 02:36:43;;;;;;;2.28;1.75;;;22.40;31.30;;;;;;5074115;28;20420;-63
2022/04/03 02:39:09;;;;;;;1.90;1.40;;;22.40;31.40;;;;;;5073866;28;20890;-63
2022/04/03 02:41:35;;;;;;;2.38;1.63;;;22.40;31.30;;;;;;5073563;28;20445;-63
2022/04/03 02:44:03;;;;;;;1.70;1.58;;;22.40;31.30;;;;;;5055923;28;20392;-63
2022/04/03 02:46:29;;;;;;;2.03;1.42;;;22.40;31.30;;;;;;5073895;28;20380;-63
2022/04/03 02:48:57;;;;;;;2.20;1.50;;;22.40;31.40;;;;;;5073238;28;20423;-63
2022/04/03 02:51:23;;;;;;;1.48;1.30;;;22.40;31.30;;;;;;5072750;28;20924;-63
2022/04/03 02:53:48;;;;;;;2.10;1.60;;;22.40;31.20;;;;;;5073299;28;20396;-63
2022/04/03 02:56:14;;;;;;;2.30;1.50;;;22.40;31.40;;;;;;5073630;28;20852;-63
2022/04/03 02:58:40;;;;;;;2.30;2.00;;;22.40;31.20;;;;;;5073657;28;20388;-63
2022/04/03 03:01:06;;;;;;;1.88;1.50;;;22.30;31.20;;;;;;5073575;28;20426;-63
2022/04/03 03:03:32;;;;;;;2.22;1.45;;;22.30;31.20;;;;;;5073353;28;20744;-63
2022/04/03 03:05:57;;;;;;;2.50;1.50;;;22.40;31.20;;;;;;5073298;28;20433;-63
2022/04/03 03:08:23;;;;;;;1.73;1.50;;;22.30;31.10;;;;;;5073408;28;20387;-63
2022/04/03 03:10:49;;;;;;;2.47;1.60;;;22.30;31.10;;;;;;5073485;28;20392;-63
2022/04/03 03:13:14;;;;;;;1.87;1.50;;;22.30;31.20;;;;;;5072146;28;20388;-63
2022/04/03 03:15:40;;;;;;;1.75;1.50;;;22.30;31.20;;;;;;5066136;28;20410;-63
2022/04/03 03:18:06;;;;;;;1.90;1.60;;;22.30;31.10;;;;;;5053202;28;20393;-63
2022/04/03 03:20:32;;;;;;;2.53;1.45;;;22.30;31.20;;;;;;5053143;28;20465;-63
2022/04/03 03:22:57;;;;;;;1.85;1.48;;;22.30;31.70;;;;;;5053163;28;20386;-63
2022/04/03 03:25:23;;;;;;;1.55;1.33;;;22.30;31.20;;;;;;5053086;28;20397;-63
2022/04/03 03:27:49;;;;;;;1.80;1.60;;;22.30;31.20;;;;;;5051352;28;20424;-63
2022/04/03 03:30:14;;;;;;;2.25;1.45;;;22.30;31.20;;;;;;5052973;28;20789;-63
2022/04/03 03:32:40;;;;;;;2.37;1.47;;;22.30;31.20;;;;;;5051691;28;20489;-63
2022/04/03 03:35:06;;;;;;;2.80;1.60;;;22.30;31.20;;;;;;5052965;28;20400;-63
2022/04/03 03:37:33;;;;;;;1.60;1.30;;;22.30;31.10;;;;;;5052677;28;20381;-63
2022/04/03 03:39:59;;;;;;;2.00;1.80;;;22.20;31.20;;;;;;5052384;28;20417;-63
2022/04/03 03:42:25;;;;;;;1.83;1.50;;;22.30;31.20;;;;;;5052832;28;20385;-63
2022/04/03 03:44:50;;;;;;;2.20;1.30;;;22.30;31.20;;;;;;5051574;28;20496;-63
2022/04/03 03:47:16;;;;;;;1.87;1.30;;;22.30;31.10;;;;;;5051398;28;20485;-63
2022/04/03 03:49:42;;;;;;;1.60;1.27;;;22.20;31.00;;;;;;5050939;28;20485;-63
2022/04/03 03:52:09;;;;;;;1.60;1.37;;;22.20;31.60;;;;;;5052572;28;20396;-63
2022/04/03 03:54:35;;;;;;;2.00;1.45;;;22.30;31.00;;;;;;5052570;28;20398;-63
2022/04/03 03:57:01;;;;;;;1.85;1.30;;;22.20;31.00;;;;;;5051251;28;20476;-63
2022/04/03 03:59:26;;;;;;;1.80;1.40;;;22.30;31.10;;;;;;5052373;28;20768;-63
2022/04/03 04:01:53;;;;;;;1.75;1.30;;;22.20;31.00;;;;;;5050604;28;20404;-63
2022/04/03 04:04:19;;;;;;;1.63;1.40;;;22.20;31.00;;;;;;5052161;28;20429;-63
2022/04/03 04:06:45;;;;;;;1.73;1.55;;;22.20;31.00;;;;;;5052126;28;20428;-63
2022/04/03 04:09:10;;;;;;;2.20;1.40;;;22.20;31.10;;;;;;5052310;28;20389;-63
2022/04/03 04:11:36;;;;;;;2.15;1.50;;;22.20;31.10;;;;;;5052072;28;20385;-63
2022/04/03 04:14:02;;;;;;;2.57;1.63;;;22.20;31.10;;;;;;5051994;28;20745;-63
2022/04/03 04:16:28;;;;;;;1.67;1.40;;;22.20;31.10;;;;;;5062642;28;20426;-63
2022/04/03 04:18:54;;;;;;;2.10;1.67;;;22.20;31.10;;;;;;5070843;28;20755;-63
2022/04/03 04:21:19;;;;;;;1.70;1.40;;;22.20;31.10;;;;;;5070699;28;20404;-63
2022/04/03 04:23:45;;;;;;;2.00;1.40;;;22.20;31.10;;;;;;5071546;28;20387;-63
2022/04/03 04:26:11;;;;;;;1.92;1.55;;;22.20;31.10;;;;;;5071903;28;20450;-63
2022/04/03 04:28:37;;;;;;;1.80;1.30;;;22.10;31.00;;;;;;5071952;28;20969;-63
2022/04/03 04:31:03;;;;;;;1.50;1.40;;;22.10;31.10;;;;;;5071859;28;20394;-63
2022/04/03 04:33:28;;;;;;;1.70;1.55;;;22.10;31.10;;;;;;5071854;28;20388;-63
2022/04/03 04:35:54;;;;;;;1.90;1.60;;;22.10;31.10;;;;;;5071351;28;20388;-63
2022/04/03 04:38:20;;;;;;;1.80;1.38;;;22.10;31.00;;;;;;5071791;28;20388;-63
2022/04/03 04:40:46;;;;;;;2.00;1.70;;;22.10;31.00;;;;;;5070382;28;20421;-63
2022/04/03 04:43:11;;;;;;;1.70;1.50;;;22.10;31.00;;;;;;5071703;28;20442;-63
2022/04/03 04:45:37;;;;;;;1.77;1.60;;;22.10;31.00;;;;;;5071470;28;20470;-63
2022/04/03 04:48:03;;;;;;;1.90;1.60;;;22.10;31.00;;;;;;5070095;28;20383;-63
2022/04/03 04:50:31;;;;;;;2.10;1.90;;;22.10;31.00;;;;;;5071575;28;20459;-63
2022/04/03 04:52:58;;;;;;;2.10;1.80;;;22.10;31.10;;;;;;5071511;28;20748;-63
2022/04/03 04:55:25;;;;;;;2.00;1.80;;;22.10;31.10;;;;;;5071503;28;20387;-63
2022/04/03 04:57:56;;;;;;;2.50;2.00;;;22.10;31.10;;;;;;5071104;28;20444;-63
2022/04/03 05:00:26;;;;;;;2.67;2.00;;;22.10;31.10;;;;;;5071361;28;20461;-63
2022/04/03 05:02:52;;;;;;;2.40;2.20;;;22.10;31.10;;;;;;5071714;28;20510;-63
2022/04/03 05:05:19;;;;;;;2.40;2.13;;;22.00;31.10;;;;;;5071362;28;20894;-63
2022/04/03 05:07:47;;;;;;;2.10;1.90;;;22.00;31.10;;;;;;5070935;28;20387;-63
2022/04/03 05:10:14;;;;;;;2.38;2.17;;;22.10;31.10;;;;;;5070121;28;20404;-63
2022/04/03 05:12:40;;;;;;;2.22;2.03;;;22.10;31.10;;;;;;5071389;28;20380;-63
2022/04/03 05:15:08;;;;;;;2.50;2.03;;;22.00;31.10;;;;;;5069276;28;20387;-63
2022/04/03 05:17:34;;;;;;;2.10;1.90;;;22.10;31.10;;;;;;5071318;28;20394;-63
2022/04/03 05:19:59;;;;;;;2.37;2.17;;;22.00;31.00;;;;;;5070734;28;20443;-63
2022/04/03 05:22:26;;;;;;;2.47;2.10;;;22.00;31.00;;;;;;5071296;28;20477;-63
2022/04/03 05:24:53;;;;;;;2.38;2.10;;;22.00;31.00;;;;;;5071355;28;20376;-63
2022/04/03 05:27:19;;;;;;;2.55;1.75;;;22.00;31.00;;;;;;5071187;28;20752;-63
2022/04/03 05:29:45;;;;;;;2.97;2.00;;;22.00;31.00;;;;;;5070590;28;20496;-63
2022/04/03 05:32:11;;;;;;;2.30;2.10;;;22.00;31.00;;;;;;5071141;28;20406;-63
2022/04/03 05:34:37;;;;;;;2.67;2.00;;;22.00;31.00;;;;;;5071170;28;20782;-63
2022/04/03 05:37:03;;;;;;;2.10;1.90;;;22.00;31.00;;;;;;5071171;28;20890;-63
2022/04/03 05:39:29;;;;;;;2.95;2.20;;;22.00;31.00;;;;;;5071070;28;20416;-63
2022/04/03 05:41:55;;;;;;;2.20;2.00;;;22.00;31.00;;;;;;5069365;28;20395;-63
2022/04/03 05:44:24;;;;;;;2.13;1.92;;;22.00;31.00;;;;;;5070971;28;20482;-63
2022/04/03 05:46:51;;;;;;;2.30;2.10;;;22.00;31.10;;;;;;5071055;28;20391;-63
2022/04/03 05:49:17;;;;;;;2.10;1.90;;;22.00;31.00;;;;;;5071094;28;20407;-63
2022/04/03 05:51:43;;;;;;;2.10;1.80;;;22.00;31.00;;;;;;5070877;28;20879;-63
2022/04/03 05:54:10;;;;;;;2.40;2.00;;;22.00;31.10;;;;;;5070674;28;20429;-63
2022/04/03 05:56:35;;;;;;;2.72;1.80;;;22.00;31.00;;;;;;5053072;28;20894;-63
2022/04/03 05:59:01;;;;;;;2.10;1.90;;;22.00;31.00;;;;;;5070792;28;20404;-63
2022/04/03 06:01:27;;;;;;;2.22;1.98;;;22.00;30.90;;;;;;5070951;28;20380;-63
2022/04/03 06:03:53;;;;;;;2.10;1.90;;;22.00;31.00;;;;;;5070463;28;20387;-63
2022/04/03 06:06:18;;;;;;;2.78;1.95;;;21.90;30.90;;;;;;5070784;28;20529;-63
2022/04/03 06:08:44;;;;;;;2.70;1.90;;;21.90;30.90;;;;;;5070916;28;20387;-63
2022/04/03 06:11:10;;;;;;;2.13;1.93;;;21.90;30.90;;;;;;5070837;28;20389;-63
2022/04/03 06:13:36;;;;;;;2.00;1.70;;;21.90;30.80;;;;;;5070152;28;20897;-63
2022/04/03 06:16:02;;;;;;;2.13;1.90;;;21.90;30.90;;;;;;5059727;28;20931;-63
2022/04/03 06:18:29;;;;;;;3.90;2.13;;;22.00;31.10;;;;;;5050493;28;20424;-63
2022/04/03 06:20:54;;;;;;;3.47;2.30;;;22.00;31.20;;;;;;5050541;28;20441;-63
2022/04/03 06:23:22;;;;;;;4.35;2.60;;;21.90;30.50;;;;;;5050282;28;20420;-62
2022/04/03 06:25:52;;;;;;;4.07;2.80;;;21.70;30.30;;;;;;5049709;28;20771;-62
2022/04/03 06:28:17;;;;;;;3.88;2.90;;;21.70;30.60;;;;;;5053149;28;20480;-63
2022/04/03 06:30:43;;;;;;;3.40;2.67;;;21.70;31.10;;;;;;5053767;28;20476;-64
2022/04/03 06:33:09;;;;;;;4.38;2.72;;;21.70;31.40;;;;;;5053612;28;20409;-64
2022/04/03 06:35:34;;;;;;;5.00;2.40;;;21.60;31.40;;;;;;5053718;28;20390;-64
2022/04/03 06:38:01;;;;;;;3.80;2.40;;;21.60;31.70;;;;;;5053129;28;20386;-63
2022/04/03 06:40:27;;;;;;;4.35;2.50;;;21.60;31.90;;;;;;5052608;28;20425;-63
2022/04/03 06:42:53;;;;;;;4.70;2.35;;;21.60;32.00;;;;;;5053529;28;20416;-63
2022/04/03 06:45:19;;;;;;;5.07;2.63;;;21.60;32.10;;;;;;5053498;28;20397;-62
2022/04/03 06:47:45;;;;;;;5.13;2.55;;;21.60;32.00;;;;;;5053189;28;20393;-63
2022/04/03 06:50:12;;;;;;;3.97;2.40;;;21.60;32.00;;;;;;5053187;28;20400;-63
2022/04/03 06:52:38;;;;;;;5.35;2.30;;;21.60;32.30;;;;;;5053372;28;20464;-63
2022/04/03 06:55:04;;;;;;;4.88;2.40;;;21.60;32.40;;;;;;5053320;28;20480;-63
2022/04/03 06:57:30;;;;;;;4.60;2.00;;;21.60;32.30;;;;;;5050552;28;20394;-63
2022/04/03 06:59:56;;;;;;;4.47;2.17;;;21.70;32.40;;;;;;5052950;28;20911;-63
2022/04/03 07:02:22;;;;;;;2.75;2.20;;;21.70;32.30;;;;;;5053583;28;20392;-63
2022/04/03 07:04:47;;;;;;;3.40;2.10;;;21.70;32.40;;;;;;5053571;28;20397;-63
2022/04/03 07:07:23;;;;;;;3.88;2.00;;;21.70;32.40;;;;;;5053344;28;20378;-63
2022/04/03 07:09:49;;;;;;;3.90;2.20;;;21.60;32.80;;;;;;5053323;28;20390;-62
2022/04/03 07:12:15;;;;;;;5.18;2.10;;;21.60;33.00;;;;;;5053301;28;20869;-62
2022/04/03 07:14:41;;;;;;;3.67;2.13;;;21.60;33.20;;;;;;5053321;28;20754;-62
2022/04/03 07:17:07;;;;;;;5.78;2.50;;;21.70;32.80;;;;;;5070230;28;20408;-62
2022/04/03 07:19:33;;;;;;;5.25;2.50;;;21.70;33.50;;;;;;5073177;28;20410;-62
2022/04/03 07:21:59;;;;;;;5.45;2.92;;;21.70;35.20;;;;;;5072846;28;20400;-62
2022/04/03 07:24:25;;;;;;;6.97;2.73;;;21.60;34.60;;;;;;5073199;28;20399;-62
2022/04/03 07:26:53;;;;;;;6.93;3.40;;;21.70;33.90;;;;;;5073121;28;20880;-62
2022/04/03 07:29:19;;;;;;;5.45;2.88;;;21.60;33.70;;;;;;5073037;28;20376;-62
2022/04/03 07:31:45;;;;;;;5.20;3.40;;;21.70;33.50;;;;;;5072390;28;20442;-62
2022/04/03 07:34:11;;;;;;;6.73;3.33;;;21.70;33.40;;;;;;5067668;28;20405;-62
2022/04/03 07:36:36;;;;;;;8.65;3.53;;;21.80;33.20;;;;;;5071214;28;20380;-61
2022/04/03 07:39:02;;;;;;;7.57;4.00;;;21.70;33.10;;;;;;5072233;28;21962;-62
2022/04/03 07:41:28;;;;;;;6.80;3.80;;;21.80;33.60;;;;;;5071052;28;20388;-61
2022/04/03 07:43:54;;;;;;;6.35;3.85;;;21.70;33.30;;;;;;5071262;28;20449;-62
2022/04/03 07:46:19;;;;;;;6.20;3.73;;;21.80;33.20;;;;;;5072487;28;20462;-62
2022/04/03 07:48:45;;;;;;;6.20;3.22;;;21.80;33.30;;;;;;5072136;28;20410;-62
2022/04/03 07:51:11;;;;;;;7.03;3.47;;;21.80;34.60;;;;;;5071684;28;20395;-62
2022/04/03 07:53:38;;;;;;;6.05;3.50;;;21.80;34.50;;;;;;5070860;28;20448;-62
2022/04/03 07:56:05;;;;;;;7.53;3.65;;;21.90;34.60;;;;;;5070073;28;20396;-61
2022/04/03 07:58:35;;;;;;;6.70;3.50;;;21.90;34.60;;;;;;5071233;28;20388;-61
2022/04/03 08:01:02;;;;;;;5.70;3.45;;;21.80;34.20;;;;;;5065938;28;20427;-61
2022/04/03 08:03:27;;;;;;;8.32;3.40;;;21.80;33.60;;;;;;5070789;28;20924;-63
2022/04/03 08:05:54;;;;;;;6.82;3.30;;;21.90;33.90;;;;;;5069871;28;20404;-63
2022/04/03 08:08:20;;;;;;;7.13;3.17;;;22.00;34.80;;;;;;5070757;28;20399;-62
2022/04/03 08:10:46;;;;;;;5.57;3.38;;;22.10;35.70;;;;;;5071952;28;20403;-62
2022/04/03 08:13:11;;;;;;;7.40;3.17;;;22.10;35.60;;;;;;5072132;28;20871;-62
2022/04/03 08:15:37;;;;;;;7.53;3.70;;;22.00;34.80;;;;;;5071790;28;20395;-63
2022/04/03 08:18:03;;;;;;;6.55;3.53;;;22.10;36.10;;;;;;5071356;28;20432;-62
2022/04/03 08:20:29;;;;;;;8.15;3.05;;;22.10;36.00;;;;;;5071681;28;20407;-62
2022/04/03 08:22:55;;;;;;;6.22;3.05;;;22.20;35.30;;;;;;5070989;28;20416;-63
2022/04/03 08:25:20;;;;;;;6.17;3.03;;;22.20;35.00;;;;;;5071593;28;20404;-62
2022/04/03 08:27:47;;;;;;;5.25;3.00;;;22.10;35.20;;;;;;5070557;28;20384;-63
2022/04/03 08:30:18;;;;;;;8.35;3.13;;;22.10;35.40;;;;;;5071300;28;20794;-62
2022/04/03 08:32:43;;;;;;;6.85;2.90;;;22.10;35.10;;;;;;5071754;28;20479;-63
2022/04/03 08:35:11;;;;;;;6.10;2.90;;;22.20;34.80;;;;;;5087222;28;20467;-62
2022/04/03 08:37:37;;;;;;;7.80;3.35;;;22.10;34.10;;;;;;5071687;28;20458;-64
2022/04/03 08:40:06;;;;;;;6.63;3.10;;;22.10;33.70;;;;;;5053212;28;20508;-64
2022/04/03 08:42:34;;;;;;;6.75;2.80;;;22.10;33.90;;;;;;5071330;28;20392;-63
2022/04/03 08:45:00;;;;;;;6.72;3.25;;;22.10;33.70;;;;;;5071632;28;20449;-63
2022/04/03 08:47:26;;;;;;;6.43;3.22;;;22.10;33.50;;;;;;5071459;28;20392;-63
2022/04/03 08:49:59;;;;;;;4.70;3.00;;;22.10;33.40;;;;;;5070642;28;20924;-64
2022/04/03 08:52:26;;;;;;;6.93;3.00;;;22.10;33.30;;;;;;5071421;28;20433;-63
2022/04/03 08:54:52;;;;;;;5.93;2.80;;;22.10;33.20;;;;;;5071499;28;20867;-64
2022/04/03 08:57:18;;;;;;;6.90;2.90;;;22.20;33.20;;;;;;5071275;28;20448;-63
2022/04/03 08:59:44;;;;;;;6.03;3.45;;;22.20;33.10;;;;;;5071372;28;20419;-63
2022/04/03 09:02:13;;;;;;;4.50;2.80;;;22.20;33.00;;;;;;5070721;28;20437;-64
2022/04/03 09:04:38;;;;;;;4.55;2.92;;;22.20;33.00;;;;;;5071219;28;20391;-63
2022/04/03 09:07:04;;;;;;;4.13;2.70;;;22.20;33.20;;;;;;5071117;28;20384;-63
2022/04/03 09:09:30;;;;;;;4.85;2.67;;;22.20;33.10;;;;;;5071306;28;20894;-64
2022/04/03 09:12:16;;;;;;;5.55;2.65;;;22.10;33.00;;;;;;5070467;28;20380;-63
2022/04/03 09:14:48;;;;;;;4.15;2.33;;;22.00;33.10;;;;;;5071515;28;20398;-64
2022/04/03 09:17:31;;;;;;;6.57;2.60;;;22.00;33.20;;;;;;5086616;28;20412;-63
2022/04/03 09:20:08;;;;;;;5.40;2.50;;;22.10;33.20;;;;;;5071912;28;20419;-64
2022/04/03 09:22:37;;;;;;;5.67;2.77;;;22.10;33.30;;;;;;5072913;28;20376;-64
2022/04/03 09:25:04;;;;;;;8.05;2.60;;;22.00;33.70;;;;;;5075633;28;20383;-64
2022/04/03 09:27:34;;;;;;;5.78;2.50;;;22.00;33.80;;;;;;5074015;28;20384;-64
2022/04/03 09:30:07;;;;;;;6.97;2.45;;;22.00;33.70;;;;;;5087603;28;20826;-62
2022/04/03 09:32:34;;;;;;;5.90;2.40;;;22.10;33.40;;;;;;5072199;28;20418;-63
2022/04/03 09:35:00;;;;;;;8.25;2.53;;;22.10;33.10;;;;;;5073243;28;20431;-63
2022/04/03 09:37:26;;;;;;;6.40;2.58;;;22.10;32.70;;;;;;5075100;28;20380;-63
2022/04/03 09:39:53;;;;;;;7.72;3.03;;;22.00;33.20;;;;;;5074530;28;20403;-63
2022/04/03 09:42:19;;;;;;;6.45;3.13;;;22.10;32.30;;;;;;5071966;28;20456;-63
2022/04/03 09:44:46;;;;;;;8.57;3.00;;;22.40;32.20;;;;;;5086764;28;20383;-63
2022/04/03 09:47:26;;;;;;;8.85;2.60;;;22.50;32.10;;;;;;5072945;28;20402;-63
2022/04/03 09:49:59;;;;;;;6.07;2.47;;;22.60;32.00;;;;;;5072681;28;20388;-63
2022/04/03 09:52:41;;;;;;;7.03;2.72;;;22.50;32.00;;;;;;5073020;28;20416;-64
2022/04/03 09:55:29;;;;;;;6.22;2.60;;;22.40;32.50;;;;;;5073160;28;20751;-63
2022/04/03 09:58:03;;;;;;;7.60;2.50;;;22.40;32.40;;;;;;5072464;28;20918;-63
2022/04/03 10:00:30;;;;;;;5.40;2.50;;;22.40;32.90;;;;;;5073267;28;20895;-63
2022/04/03 10:03:00;;;;;;;6.10;2.70;;;22.40;32.70;;;;;;5076559;28;20384;-63
2022/04/03 10:05:31;;;;;;;5.70;2.65;;;22.40;32.00;;;;;;5076566;28;20368;-63
2022/04/03 10:07:59;;;;;;;4.40;2.10;;;22.30;32.00;;;;;;5076604;28;20460;-63
2022/04/03 10:10:29;;;;;;;5.97;2.63;;;22.30;32.10;;;;;;5076673;28;20383;-64
2022/04/03 10:12:56;;;;;;;5.32;2.50;;;22.30;34.50;;;;;;5076499;28;20392;-63
2022/04/03 10:15:26;;;;;;;8.15;2.60;;;22.30;33.10;;;;;;5073786;28;21088;-64
2022/04/03 10:17:52;;;;;;;7.50;3.05;;;22.40;33.00;;;;;;5056390;28;20398;-64
2022/04/03 10:20:18;;;;;;;4.72;3.25;;;22.40;32.40;;;;;;5055575;28;20432;-63
2022/04/03 10:22:48;;;;;;;3.67;2.53;;;22.50;31.90;;;;;;5055709;28;20381;-62
2022/04/03 10:25:19;;;;;;;5.85;3.00;;;22.50;32.20;;;;;;5055747;28;20390;-63
2022/04/03 10:27:47;;;;;;;6.47;2.65;;;22.50;32.40;;;;;;5055795;28;20398;-63
2022/04/03 10:30:17;;;;;;;4.88;2.30;;;22.50;32.30;;;;;;5054988;28;20850;-65
2022/04/03 10:32:59;;;;;;;5.65;2.53;;;22.50;32.20;;;;;;5056379;28;20382;-62
2022/04/03 10:35:25;;;;;;;4.10;2.40;;;22.50;32.40;;;;;;5055855;28;20389;-62
2022/04/03 10:38:03;;;;;;;4.38;2.38;;;22.60;32.40;;;;;;5055613;28;20413;-63
2022/04/03 10:40:32;;;;;;;5.22;2.50;;;22.60;32.20;;;;;;5055396;28;20480;-62
2022/04/03 10:43:02;;;;;;;3.88;2.25;;;22.60;32.00;;;;;;5055342;28;20399;-63
2022/04/03 10:45:28;;;;;;;4.45;2.45;;;22.60;32.50;;;;;;5055468;28;20746;-63
2022/04/03 10:48:21;;;;;;;5.63;2.23;;;22.60;32.10;;;;;;5055837;28;20393;-63
2022/04/03 10:51:09;;;;;;;3.47;2.40;;;22.60;32.30;;;;;;5055471;28;20396;-62
2022/04/03 10:53:41;;;;;;;4.68;2.30;;;22.60;32.70;;;;;;5055217;28;20469;-63
2022/04/03 10:56:25;;;;;;;5.20;2.22;;;22.70;33.40;;;;;;5054850;28;20390;-63
2022/04/03 10:58:53;;;;;;;9.23;2.40;;;22.70;34.30;;;;;;5053504;28;20908;-63
2022/04/03 11:01:28;;;;;;;4.60;2.33;;;22.80;34.50;;;;;;5053379;28;20374;-63
2022/04/03 11:03:56;;;;;;;5.75;2.38;;;22.80;34.00;;;;;;5052256;28;20393;-64
2022/04/03 11:06:24;;;;;;;5.63;2.53;;;22.90;33.80;;;;;;5052988;28;20481;-63
2022/04/03 11:09:07;;;;;;;5.05;2.15;;;22.80;34.10;;;;;;5053482;28;20436;-64
2022/04/03 11:11:51;;;;;;;5.15;2.20;;;22.80;33.70;;;;;;5051890;28;20391;-63
2022/04/03 11:14:51;;;;;;;4.07;2.10;;;22.80;33.30;;;;;;5052300;28;20385;-63
2022/04/03 11:17:16;;;;;;;5.40;2.25;;;22.70;32.90;;;;;;5083343;28;20445;-63
2022/04/03 11:19:46;;;;;;;4.37;2.10;;;22.70;32.80;;;;;;5052737;28;20841;-63
2022/04/03 11:22:17;;;;;;;3.35;2.40;;;22.80;32.80;;;;;;5035904;28;20522;-64
2022/04/03 11:24:44;;;;;;;5.70;2.45;;;22.80;32.70;;;;;;5032748;28;20399;-63
2022/04/03 11:27:12;;;;;;;4.05;2.35;;;22.80;32.60;;;;;;5032896;28;20389;-63
2022/04/03 11:29:38;;;;;;;5.43;2.45;;;22.70;32.70;;;;;;5050788;28;20777;-63
2022/04/03 11:32:06;;;;;;;4.05;2.30;;;22.70;33.00;;;;;;5051618;28;20385;-64
2022/04/03 11:34:33;;;;;;;3.50;2.30;;;22.80;32.90;;;;;;5052070;28;20393;-63
2022/04/03 11:37:02;;;;;;;4.65;2.20;;;22.80;32.70;;;;;;5052908;28;20393;-67
2022/04/03 11:39:33;;;;;;;3.95;2.15;;;22.80;32.60;;;;;;5051421;28;20413;-62
2022/04/03 11:42:02;;;;;;;3.22;2.00;;;22.80;32.60;;;;;;5052296;28;20813;-63
2022/04/03 11:44:29;;;;;;;2.95;1.95;;;22.80;32.30;;;;;;5034193;28;20397;-62
2022/04/03 11:46:54;;;;;;;3.50;2.10;;;22.80;32.40;;;;;;5051805;28;20385;-63
2022/04/03 11:49:22;;;;;;;3.13;2.20;;;22.70;32.60;;;;;;5051031;28;20966;-65
2022/04/03 11:51:54;;;;;;;5.95;2.22;;;22.80;32.50;;;;;;5048612;28;20753;-64
2022/04/03 11:54:20;;;;;;;3.55;2.10;;;22.80;32.40;;;;;;5050645;28;20389;-62
2022/04/03 11:56:46;;;;;;;4.10;2.30;;;22.80;32.40;;;;;;5051153;28;20745;-64
2022/04/03 11:59:11;;;;;;;3.70;2.27;;;22.80;32.30;;;;;;5041092;28;20432;-64
2022/04/03 12:01:51;;;;;;;3.28;2.38;;;22.80;32.40;;;;;;5050402;28;20400;-63
2022/04/03 12:04:17;;;;;;;3.08;2.10;;;22.80;32.40;;;;;;5049225;28;20425;-62
2022/04/03 12:06:48;;;;;;;3.13;2.00;;;22.80;32.40;;;;;;5050889;28;20416;-63
2022/04/03 12:09:16;;;;;;;4.07;2.10;;;22.80;32.30;;;;;;5050752;28;20390;-63
2022/04/03 12:11:48;;;;;;;4.13;1.88;;;22.80;32.30;;;;;;5050745;28;20488;-63
2022/04/03 12:14:26;;;;;;;2.30;1.90;;;22.80;32.60;;;;;;5048514;28;20416;-62
2022/04/03 12:17:02;;;;;;;3.47;2.47;;;22.80;32.60;;;;;;5063737;28;20411;-63
2022/04/03 12:19:29;;;;;;;7.13;2.28;;;22.80;32.90;;;;;;5068093;28;20463;-62
2022/04/03 12:21:56;;;;;;;3.88;2.30;;;22.90;33.00;;;;;;5071207;28;20388;-63
2022/04/03 12:24:27;;;;;;;4.87;2.30;;;22.90;33.00;;;;;;5071578;28;20387;-63
2022/04/03 12:27:14;;;;;;;2.80;2.03;;;23.00;33.10;;;;;;5070581;28;20396;-62
2022/04/03 12:29:51;;;;;;;3.00;2.20;;;23.00;32.80;;;;;;5087387;28;20384;-63
2022/04/03 12:32:28;;;;;;;4.47;2.10;;;23.00;33.70;;;;;;5071059;28;20430;-63
2022/04/03 12:34:55;;;;;;;4.88;2.40;;;23.00;34.00;;;;;;5070886;28;20384;-63
2022/04/03 12:37:21;;;;;;;5.75;2.22;;;23.00;34.00;;;;;;5070357;28;20388;-64
2022/04/03 12:40:00;;;;;;;5.70;2.00;;;23.00;34.50;;;;;;5070283;28;20767;-63
2022/04/03 12:42:30;;;;;;;3.57;1.87;;;22.90;34.10;;;;;;5067992;28;20392;-64
2022/04/03 12:45:06;;;;;;;3.23;2.00;;;22.90;34.00;;;;;;5070317;28;20383;-63
2022/04/03 12:47:46;;;;;;;6.22;1.90;;;22.90;33.80;;;;;;5068996;28;20388;-62
2022/04/03 12:50:43;;;;;;;5.10;2.20;;;22.90;34.30;;;;;;5067352;28;20392;-62